Time;durP1;ratioP1;P1;durP2;ratioP2;P2;SDS_P1;SDS_P2;PMS_P1;PMS_P2;Temp;Humidity;BMP_temperature;BMP_pressure;BME280_temperature;BME280_humidity;BME280_pressure;Samples;Min_cycle;Max_cycle;Signal;HPM_P1;HPM_P2
2023/01/05 00:01:34;;;;;;;28.60;4.20;;;10.30;99.90;;;;;;5038899;28;20033;-75
2023/01/05 00:04:00;;;;;;;34.30;4.85;;;10.30;99.90;;;;;;5039466;28;20262;-75
2023/01/05 00:06:26;;;;;;;35.40;4.77;;;10.20;99.90;;;;;;5053665;28;20029;-76
2023/01/05 00:08:52;;;;;;;25.97;3.77;;;10.20;99.90;;;;;;5045860;28;20041;-83
2023/01/05 00:22:31;;;;;;;29.58;4.55;;;10.00;99.90;;;;;;5036174;28;20106;-82
2023/01/05 00:25:02;;;;;;;29.70;5.03;;;10.00;99.90;;;;;;5047461;28;20049;-74
2023/01/05 00:27:29;;;;;;;34.38;5.20;;;9.90;99.90;;;;;;5038237;28;20025;-81
2023/01/05 00:29:54;;;;;;;25.98;3.33;;;9.90;99.90;;;;;;5057469;28;20016;-76
2023/01/05 00:32:21;;;;;;;35.40;5.83;;;9.90;99.90;;;;;;5055929;28;20029;-75
2023/01/05 00:34:46;;;;;;;25.23;3.53;;;9.90;99.90;;;;;;5037157;28;20043;-75
2023/01/05 00:37:12;;;;;;;23.37;3.70;;;9.90;99.90;;;;;;5054805;28;20323;-75
2023/01/05 00:39:38;;;;;;;33.60;5.93;;;9.90;99.90;;;;;;5055774;28;20039;-76
2023/01/05 00:42:03;;;;;;;39.53;4.70;;;9.90;99.90;;;;;;5058584;28;20535;-76
2023/01/05 00:44:29;;;;;;;36.90;4.70;;;10.00;99.90;;;;;;5038656;28;20029;-75
2023/01/05 00:46:55;;;;;;;26.60;4.60;;;10.00;99.90;;;;;;5034308;28;20049;-75
2023/01/05 00:49:20;;;;;;;41.20;5.57;;;10.00;99.90;;;;;;5040713;28;20025;-75
2023/01/05 00:51:46;;;;;;;38.73;5.17;;;10.00;99.90;;;;;;5048377;28;20025;-76
2023/01/05 00:54:12;;;;;;;36.30;4.53;;;9.90;99.90;;;;;;5056686;28;20090;-83
2023/01/05 00:56:37;;;;;;;34.70;5.37;;;9.90;99.90;;;;;;5059155;28;20028;-75
2023/01/05 00:59:03;;;;;;;46.93;5.53;;;9.90;99.90;;;;;;5053501;28;20060;-75
2023/01/05 01:01:29;;;;;;;34.67;4.20;;;9.80;99.90;;;;;;5036927;28;20032;-76
2023/01/05 01:03:55;;;;;;;37.90;4.13;;;9.80;99.90;;;;;;5052975;28;20033;-76
2023/01/05 01:06:21;;;;;;;35.72;5.82;;;9.70;99.90;;;;;;5053364;28;20032;-76
2023/01/05 01:08:47;;;;;;;29.65;3.70;;;9.70;99.90;;;;;;5057770;28;20033;-75
2023/01/05 01:11:15;;;;;;;33.30;4.20;;;9.70;99.90;;;;;;5056070;28;20036;-78
2023/01/05 01:13:43;;;;;;;28.75;3.70;;;9.60;99.90;;;;;;5033325;28;20033;-75
2023/01/05 01:16:11;;;;;;;33.55;4.53;;;9.60;99.90;;;;;;5054019;28;20037;-76
2023/01/05 01:18:37;;;;;;;28.52;4.13;;;9.60;99.90;;;;;;5051048;28;20119;-77
2023/01/05 01:21:03;;;;;;;43.75;4.57;;;9.70;99.90;;;;;;5052598;28;20025;-76
2023/01/05 01:23:30;;;;;;;28.38;5.88;;;9.70;99.90;;;;;;5054405;28;20029;-82
2023/01/05 01:25:56;;;;;;;21.95;3.67;;;9.70;99.90;;;;;;5056731;28;20098;-77
2023/01/05 01:28:24;;;;;;;30.63;4.73;;;9.80;99.90;;;;;;5036118;28;20033;-75
2023/01/05 01:30:50;;;;;;;23.70;3.85;;;9.80;99.90;;;;;;5054443;28;20033;-75
2023/01/05 01:33:16;;;;;;;36.50;5.13;;;9.80;99.90;;;;;;5047425;28;20356;-73
2023/01/05 01:35:41;;;;;;;28.60;4.40;;;9.80;99.90;;;;;;5062262;28;20040;-75
2023/01/05 01:38:07;;;;;;;27.57;3.93;;;9.80;99.90;;;;;;5063039;28;20021;-74
2023/01/05 01:40:45;;;;;;;29.87;3.67;;;9.90;99.90;;;;;;5039502;28;20036;-75
2023/01/05 01:43:15;;;;;;;36.58;6.05;;;9.90;99.90;;;;;;5048130;28;20078;-80
2023/01/05 01:45:41;;;;;;;28.30;4.20;;;10.00;99.90;;;;;;5052908;28;20102;-80
2023/01/05 01:48:10;;;;;;;39.63;5.57;;;10.10;99.90;;;;;;5055193;28;20078;-85
2023/01/05 01:50:50;;;;;;;36.13;4.90;;;10.10;99.90;;;;;;5053099;28;20079;-76
2023/01/05 01:53:18;;;;;;;25.42;4.75;;;10.10;99.90;;;;;;5052669;28;20021;-83
2023/01/05 01:55:45;;;;;;;34.47;3.78;;;10.10;99.90;;;;;;5054745;28;20155;-76
2023/01/05 01:58:14;;;;;;;44.10;5.32;;;10.20;99.90;;;;;;5036380;28;20029;-80
2023/01/05 02:00:40;;;;;;;33.72;4.97;;;10.20;99.90;;;;;;5035676;28;20033;-76
2023/01/05 02:03:05;;;;;;;43.97;4.53;;;10.20;99.90;;;;;;5059109;28;20028;-74
2023/01/05 02:05:33;;;;;;;36.57;4.53;;;10.30;99.90;;;;;;5053967;28;20028;-75
2023/01/05 02:07:59;;;;;;;42.47;5.78;;;10.30;99.90;;;;;;5039774;28;20027;-75
2023/01/05 02:11:09;;;;;;;25.63;4.57;;;10.30;99.90;;;;;;5054295;28;20063;-76
2023/01/05 02:14:04;;;;;;;34.88;5.53;;;10.40;99.90;;;;;;4987225;28;20429;-75
2023/01/05 02:30:25;;;;;;;29.40;3.90;;;10.40;99.90;;;;;;5010792;28;20104;-76
2023/01/05 02:33:11;;;;;;;37.90;5.93;;;10.40;99.90;;;;;;5007360;28;20108;-74
2023/01/05 02:35:40;;;;;;;35.45;5.85;;;10.50;99.90;;;;;;5012928;28;20109;-76
2023/01/05 02:38:37;;;;;;;29.90;4.40;;;10.40;99.90;;;;;;5011724;28;20030;-76
2023/01/05 02:41:39;;;;;;;26.95;4.97;;;10.50;99.90;;;;;;5010397;28;20080;-74
2023/01/05 02:44:07;;;;;;;34.75;4.15;;;10.40;99.90;;;;;;4995444;28;20065;-75
2023/01/05 02:46:33;;;;;;;23.33;3.95;;;10.50;99.90;;;;;;5013941;28;20443;-76
2023/01/05 02:49:00;;;;;;;31.07;4.00;;;10.50;99.90;;;;;;5013589;28;20029;-83
2023/01/05 02:51:35;;;;;;;27.02;4.70;;;10.50;99.90;;;;;;5010640;28;20110;-76
2023/01/05 02:54:11;;;;;;;24.88;4.68;;;10.50;99.90;;;;;;5004780;28;20417;-81
2023/01/05 02:56:54;;;;;;;33.08;4.78;;;10.50;99.90;;;;;;5011981;28;20365;-75
2023/01/05 02:59:23;;;;;;;29.45;3.72;;;10.50;99.90;;;;;;5013115;28;20298;-74
2023/01/05 03:01:55;;;;;;;23.30;4.32;;;10.50;99.90;;;;;;4994695;28;20129;-75
2023/01/05 03:04:47;;;;;;;25.15;4.32;;;10.60;99.90;;;;;;5012777;28;20088;-74
2023/01/05 03:07:17;;;;;;;20.15;3.25;;;10.60;99.90;;;;;;5007112;28;20052;-75
2023/01/05 03:09:44;;;;;;;23.40;3.85;;;10.60;99.90;;;;;;5012288;28;20432;-75
2023/01/05 03:15:37;;;;;;;32.17;4.80;;;10.70;99.90;;;;;;4972371;28;20038;-75
2023/01/05 03:18:13;;;;;;;34.88;4.60;;;10.70;99.90;;;;;;4971225;28;20549;-74
2023/01/05 03:20:42;;;;;;;23.50;3.70;;;10.80;99.90;;;;;;4993257;28;20341;-75
2023/01/05 03:37:35;;;;;;;21.58;4.90;;;10.70;99.90;;;;;;5059297;28;20720;-73
2023/01/05 03:40:03;;;;;;;23.70;3.53;;;10.80;99.90;;;;;;5038371;28;20167;-81
2023/01/05 03:42:30;;;;;;;39.38;4.10;;;10.70;99.90;;;;;;5058683;28;20330;-78
2023/01/05 03:44:57;;;;;;;27.13;4.63;;;10.80;99.90;;;;;;5046624;28;20025;-75
2023/01/05 03:47:23;;;;;;;23.88;4.15;;;10.80;99.90;;;;;;5056873;28;20037;-78
2023/01/05 03:49:50;;;;;;;29.20;5.07;;;10.80;99.90;;;;;;5062972;28;20029;-75
2023/01/05 03:52:16;;;;;;;22.50;3.60;;;10.80;99.90;;;;;;5052350;28;20442;-75
2023/01/05 03:54:41;;;;;;;38.37;4.43;;;10.80;99.90;;;;;;5053851;28;20025;-76
2023/01/05 03:57:07;;;;;;;35.40;4.50;;;10.80;99.90;;;;;;5055731;28;20033;-76
2023/01/05 03:59:33;;;;;;;33.13;4.37;;;10.80;99.90;;;;;;5056493;28;20103;-75
2023/01/05 04:01:58;;;;;;;33.93;3.97;;;10.80;99.90;;;;;;5056719;28;20430;-76
2023/01/05 04:04:24;;;;;;;31.37;4.40;;;10.80;99.90;;;;;;5053411;28;20033;-76
2023/01/05 04:06:50;;;;;;;25.90;3.63;;;10.70;99.90;;;;;;5056230;28;20091;-76
2023/01/05 04:09:15;;;;;;;27.67;4.27;;;10.80;99.90;;;;;;5059008;28;20426;-76
2023/01/05 04:11:41;;;;;;;28.17;4.07;;;10.80;99.90;;;;;;5057300;28;20025;-74
2023/01/05 04:14:07;;;;;;;28.50;3.83;;;10.80;99.90;;;;;;5050676;28;20029;-80
2023/01/05 04:16:32;;;;;;;25.33;3.07;;;10.80;99.90;;;;;;5055748;28;20025;-75
2023/01/05 04:18:58;;;;;;;29.33;4.70;;;10.80;99.90;;;;;;5055283;28;20078;-76
2023/01/05 04:21:24;;;;;;;29.63;3.50;;;10.80;99.90;;;;;;5057121;28;20448;-75
2023/01/05 04:23:49;;;;;;;34.13;3.87;;;10.80;99.90;;;;;;5038195;28;20033;-76
2023/01/05 04:26:15;;;;;;;23.97;3.87;;;10.80;99.90;;;;;;5057525;28;20033;-74
2023/01/05 04:28:41;;;;;;;22.37;3.40;;;10.80;99.90;;;;;;5055429;28;20420;-76
2023/01/05 04:31:06;;;;;;;31.80;3.87;;;10.80;99.90;;;;;;5036658;28;20028;-76
2023/01/05 04:33:32;;;;;;;33.87;4.07;;;10.80;99.90;;;;;;5052913;28;20033;-85
2023/01/05 04:35:58;;;;;;;28.83;5.77;;;10.80;99.90;;;;;;5040791;28;20076;-75
2023/01/05 04:38:23;;;;;;;29.87;3.60;;;10.80;99.90;;;;;;5053962;28;20400;-84
2023/01/05 04:40:50;;;;;;;36.30;4.27;;;10.70;99.90;;;;;;5037389;28;20037;-80
2023/01/05 04:43:17;;;;;;;19.55;3.33;;;10.70;99.90;;;;;;5051454;28;20071;-75
2023/01/05 04:45:46;;;;;;;22.38;3.47;;;10.70;99.90;;;;;;5041673;28;20106;-75
2023/01/05 04:48:11;;;;;;;25.02;4.22;;;10.70;99.90;;;;;;5060368;28;20068;-80
2023/01/05 04:50:37;;;;;;;29.17;4.90;;;10.70;99.90;;;;;;5057745;28;20049;-75
2023/01/05 04:53:03;;;;;;;34.87;4.70;;;10.70;99.90;;;;;;5036988;28;20032;-76
2023/01/05 04:55:28;;;;;;;19.60;4.53;;;10.70;99.90;;;;;;5053973;28;20756;-75
2023/01/05 04:57:54;;;;;;;34.73;4.70;;;10.70;99.90;;;;;;5056916;28;20056;-76
2023/01/05 05:00:20;;;;;;;24.43;3.27;;;10.70;99.90;;;;;;5052847;28;20025;-75
2023/01/05 05:02:46;;;;;;;30.10;4.30;;;10.70;99.90;;;;;;5054171;28;20107;-76
2023/01/05 05:05:12;;;;;;;21.97;3.73;;;10.70;99.90;;;;;;5032587;28;20064;-75
2023/01/05 05:07:38;;;;;;;24.13;4.40;;;10.70;99.90;;;;;;5036647;28;20059;-74
2023/01/05 05:10:04;;;;;;;15.70;3.13;;;10.70;99.90;;;;;;5038273;28;20061;-86
2023/01/05 05:12:30;;;;;;;27.42;3.72;;;10.70;99.90;;;;;;5037408;28;20045;-74
2023/01/05 05:14:56;;;;;;;22.67;2.80;;;10.60;99.90;;;;;;5057067;28;20391;-76
2023/01/05 05:17:21;;;;;;;29.47;3.47;;;10.60;99.90;;;;;;5019024;28;20025;-75
2023/01/05 05:19:47;;;;;;;35.13;3.75;;;10.60;99.90;;;;;;5036567;28;20118;-75
2023/01/05 05:22:13;;;;;;;25.85;3.80;;;10.60;99.90;;;;;;5049417;28;20028;-74
2023/01/05 05:24:39;;;;;;;21.23;2.87;;;10.60;99.90;;;;;;5048852;28;20036;-74
2023/01/05 05:27:04;;;;;;;27.05;4.00;;;10.50;99.90;;;;;;5053691;28;20077;-72
2023/01/05 05:29:30;;;;;;;21.73;3.50;;;10.50;99.90;;;;;;5048672;28;20073;-73
2023/01/05 05:31:56;;;;;;;24.60;3.67;;;10.40;99.90;;;;;;5045971;28;20155;-78
2023/01/05 05:34:21;;;;;;;27.80;4.40;;;10.40;99.90;;;;;;5046675;28;20024;-76
2023/01/05 05:36:47;;;;;;;34.70;3.80;;;10.40;99.90;;;;;;5031227;28;20276;-74
2023/01/05 05:39:14;;;;;;;30.47;3.67;;;10.40;99.90;;;;;;5047262;28;20364;-74
2023/01/05 05:41:40;;;;;;;29.45;4.05;;;10.40;99.90;;;;;;5050127;28;20043;-74
2023/01/05 05:44:06;;;;;;;29.57;4.30;;;10.40;99.90;;;;;;5046517;28;20420;-75
2023/01/05 05:46:32;;;;;;;24.77;4.55;;;10.40;99.90;;;;;;5046364;28;20034;-75
2023/01/05 05:48:59;;;;;;;24.03;3.37;;;10.40;99.90;;;;;;5044599;28;20040;-73
2023/01/05 05:51:25;;;;;;;29.75;4.35;;;10.40;99.90;;;;;;5051506;28;20075;-76
2023/01/05 05:53:51;;;;;;;29.10;3.58;;;10.50;99.90;;;;;;5043521;28;20535;-79
2023/01/05 05:56:17;;;;;;;21.57;3.80;;;10.40;99.90;;;;;;5047484;28;20036;-79
2023/01/05 05:58:43;;;;;;;34.83;3.23;;;10.40;99.90;;;;;;5048527;28;20060;-74
2023/01/05 06:01:09;;;;;;;21.57;3.80;;;10.40;99.90;;;;;;5052327;28;20060;-75
2023/01/05 06:03:35;;;;;;;18.23;3.60;;;10.40;99.90;;;;;;5031355;28;20029;-76
2023/01/05 06:06:01;;;;;;;38.42;5.88;;;10.40;99.90;;;;;;5044923;28;20285;-75
2023/01/05 06:08:28;;;;;;;30.35;3.45;;;10.40;99.90;;;;;;5034547;28;20052;-77
2023/01/05 06:10:55;;;;;;;19.33;3.97;;;10.50;99.90;;;;;;5049488;28;20086;-76
2023/01/05 06:13:21;;;;;;;27.10;3.92;;;10.50;99.90;;;;;;5052780;28;20092;-74
2023/01/05 06:15:47;;;;;;;30.95;4.47;;;10.50;99.90;;;;;;5029862;28;20037;-74
2023/01/05 06:18:13;;;;;;;31.20;4.20;;;10.50;99.90;;;;;;5031843;28;20059;-75
2023/01/05 06:20:40;;;;;;;22.53;3.67;;;10.50;99.90;;;;;;5032274;28;20032;-76
2023/01/05 06:23:06;;;;;;;29.17;4.32;;;10.50;99.90;;;;;;5031045;28;20033;-75
2023/01/05 06:25:31;;;;;;;38.95;5.32;;;10.50;99.90;;;;;;5046043;28;20033;-75
2023/01/05 06:27:57;;;;;;;23.57;3.53;;;10.50;99.90;;;;;;5036014;28;20048;-75
2023/01/05 06:30:23;;;;;;;27.73;4.43;;;10.50;99.90;;;;;;5038950;28;20028;-80
2023/01/05 06:32:49;;;;;;;23.03;4.53;;;10.60;99.90;;;;;;5055748;28;20359;-75
2023/01/05 06:35:14;;;;;;;38.03;4.60;;;10.50;99.90;;;;;;5044290;28;20036;-79
2023/01/05 06:37:40;;;;;;;24.83;4.20;;;10.50;99.90;;;;;;5055601;28;20029;-75
2023/01/05 06:40:08;;;;;;;28.00;3.60;;;10.50;99.90;;;;;;5051856;28;20029;-75
2023/01/05 06:42:34;;;;;;;24.05;3.55;;;10.60;99.90;;;;;;5054785;28;20036;-75
2023/01/05 06:45:00;;;;;;;25.53;4.40;;;10.50;99.90;;;;;;5048118;28;20017;-74
2023/01/05 06:47:25;;;;;;;29.83;3.07;;;10.50;99.90;;;;;;5050243;28;20031;-75
2023/01/05 06:49:51;;;;;;;25.67;4.37;;;10.50;99.90;;;;;;5041342;28;20469;-79
2023/01/05 06:52:16;;;;;;;26.83;4.13;;;10.50;99.90;;;;;;5053891;28;20144;-75
2023/01/05 06:54:43;;;;;;;19.65;3.72;;;10.50;99.90;;;;;;5036951;28;20120;-75
2023/01/05 06:57:09;;;;;;;27.52;3.53;;;10.50;99.90;;;;;;5054146;28;20025;-76
2023/01/05 06:59:34;;;;;;;40.58;4.70;;;10.50;99.90;;;;;;5054357;28;20025;-75
2023/01/05 07:02:00;;;;;;;39.17;5.53;;;10.50;99.90;;;;;;5054502;28;20051;-75
2023/01/05 07:04:26;;;;;;;26.00;4.10;;;10.50;99.90;;;;;;5042686;28;20047;-77
2023/01/05 07:06:51;;;;;;;27.37;4.93;;;10.50;99.90;;;;;;5054626;28;20040;-75
2023/01/05 07:09:17;;;;;;;21.93;3.33;;;10.50;99.90;;;;;;5024445;28;20830;-75
2023/01/05 07:11:42;;;;;;;21.27;3.40;;;10.50;99.90;;;;;;5037078;28;20336;-76
2023/01/05 07:14:09;;;;;;;30.60;4.17;;;10.50;99.90;;;;;;5050646;28;20362;-74
2023/01/05 07:16:34;;;;;;;37.33;4.10;;;10.50;99.90;;;;;;5047007;28;20116;-75
2023/01/05 07:19:00;;;;;;;26.92;3.63;;;10.40;99.90;;;;;;5039791;28;20142;-77
2023/01/05 07:21:26;;;;;;;23.87;3.70;;;10.40;99.90;;;;;;5051676;28;20071;-76
2023/01/05 07:23:51;;;;;;;34.73;4.00;;;10.40;99.90;;;;;;5056930;28;20068;-74
2023/01/05 07:26:17;;;;;;;21.60;3.27;;;10.40;99.90;;;;;;5043429;28;20457;-76
2023/01/05 07:28:42;;;;;;;31.43;3.47;;;10.30;99.90;;;;;;5057931;28;20040;-80
2023/01/05 07:31:08;;;;;;;22.87;3.63;;;10.30;99.90;;;;;;5057273;28;20362;-75
2023/01/05 07:33:37;;;;;;;28.17;3.03;;;10.30;99.90;;;;;;5060223;28;20052;-74
2023/01/05 07:36:03;;;;;;;27.63;3.33;;;10.30;99.90;;;;;;5041022;28;20097;-80
2023/01/05 07:38:31;;;;;;;15.40;3.05;;;10.30;99.90;;;;;;5057435;28;20029;-75
2023/01/05 07:41:01;;;;;;;22.92;3.75;;;10.30;99.90;;;;;;5053495;28;20040;-75
2023/01/05 07:43:26;;;;;;;31.30;4.63;;;10.30;99.90;;;;;;5048401;28;20187;-74
2023/01/05 07:46:03;;;;;;;34.60;4.70;;;10.40;99.90;;;;;;5051473;28;20112;-74
2023/01/05 07:48:29;;;;;;;29.63;3.40;;;10.40;99.90;;;;;;5050983;28;20427;-79
2023/01/05 07:51:03;;;;;;;13.77;3.20;;;10.30;99.90;;;;;;5048512;28;20032;-74
2023/01/05 07:53:30;;;;;;;26.95;3.63;;;10.40;99.90;;;;;;5045558;28;20491;-74
2023/01/05 07:56:00;;;;;;;32.08;4.13;;;10.40;99.90;;;;;;5057759;28;20024;-74
2023/01/05 07:58:27;;;;;;;22.95;3.65;;;10.40;99.90;;;;;;5033257;28;20067;-75
2023/01/05 08:00:53;;;;;;;;;;;10.40;99.90;;;;;;5034155;28;20058;-74
2023/01/05 08:03:18;;;;;;;25.90;3.50;;;10.30;99.90;;;;;;5038240;28;19999;-75
2023/01/05 08:05:45;;;;;;;25.35;4.53;;;10.40;99.90;;;;;;5054338;28;20044;-75
2023/01/05 08:08:11;;;;;;;23.65;4.65;;;10.40;99.90;;;;;;5038001;28;20430;-75
2023/01/05 08:10:38;;;;;;;32.33;3.15;;;10.40;99.90;;;;;;5051209;28;20025;-76
2023/01/05 08:15:52;;;;;;;20.25;3.33;;;10.40;99.90;;;;;;5059753;28;20036;-77
2023/01/05 08:18:18;;;;;;;19.10;3.78;;;10.40;99.90;;;;;;5062731;28;20104;-76
2023/01/05 08:20:53;;;;;;;27.80;5.07;;;10.40;99.90;;;;;;5023050;28;20073;-76
2023/01/05 08:23:19;;;;;;;26.48;3.88;;;10.30;99.90;;;;;;5055955;28;20033;-78
2023/01/05 08:25:45;;;;;;;24.13;3.53;;;10.40;99.90;;;;;;5062308;28;20841;-76
2023/01/05 08:28:10;;;;;;;18.83;3.90;;;10.40;99.90;;;;;;5055962;28;20083;-76
2023/01/05 08:30:36;;;;;;;26.43;2.93;;;10.40;99.90;;;;;;5016969;28;20336;-78
2023/01/05 08:33:02;;;;;;;28.70;4.00;;;10.40;99.90;;;;;;5056964;28;20029;-77
2023/01/05 08:35:27;;;;;;;22.43;4.33;;;10.40;99.90;;;;;;5044284;28;20094;-76
2023/01/05 08:37:53;;;;;;;19.03;3.23;;;10.40;99.90;;;;;;5042921;28;20048;-76
2023/01/05 08:40:19;;;;;;;35.43;4.83;;;10.40;99.90;;;;;;5041083;28;20041;-76
2023/01/05 08:42:47;;;;;;;20.60;2.87;;;10.40;99.90;;;;;;5061449;28;20103;-77
2023/01/05 08:45:14;;;;;;;25.83;3.22;;;10.40;99.90;;;;;;5053003;28;20086;-76
2023/01/05 08:47:40;;;;;;;25.00;4.75;;;10.40;99.90;;;;;;5049679;28;20025;-77
2023/01/05 08:50:08;;;;;;;29.35;3.72;;;10.40;99.90;;;;;;5045648;28;20025;-77
2023/01/05 08:52:35;;;;;;;26.15;3.83;;;10.50;99.90;;;;;;5043957;28;20061;-82
2023/01/05 08:55:01;;;;;;;22.20;3.33;;;10.40;99.90;;;;;;5034378;28;20075;-76
2023/01/05 08:57:27;;;;;;;29.57;3.83;;;10.50;99.90;;;;;;5032955;28;20040;-76
2023/01/05 08:59:52;;;;;;;35.00;4.37;;;10.50;99.90;;;;;;5017003;28;20037;-76
2023/01/05 09:02:18;;;;;;;17.70;2.97;;;10.50;99.90;;;;;;5019581;28;20036;-76
2023/01/05 09:04:44;;;;;;;24.20;4.17;;;10.50;99.90;;;;;;5035763;28;20033;-76
2023/01/05 09:07:09;;;;;;;32.10;4.53;;;10.50;99.90;;;;;;5047940;28;20045;-76
2023/01/05 09:09:35;;;;;;;22.37;3.63;;;10.50;99.90;;;;;;5043428;28;20029;-76
2023/01/05 09:12:00;;;;;;;27.63;4.30;;;10.60;99.90;;;;;;5031635;28;20443;-76
2023/01/05 09:14:26;;;;;;;24.07;3.20;;;10.60;99.90;;;;;;5047414;28;20100;-79
2023/01/05 09:16:52;;;;;;;23.27;4.47;;;10.60;99.90;;;;;;5028858;28;20051;-76
2023/01/05 09:19:17;;;;;;;29.07;4.33;;;10.60;99.90;;;;;;5045673;28;20412;-76
2023/01/05 09:21:43;;;;;;;25.87;4.23;;;10.70;99.90;;;;;;5040104;28;20029;-78
2023/01/05 09:24:11;;;;;;;35.40;3.67;;;10.70;99.90;;;;;;5054803;28;20025;-76
2023/01/05 09:26:37;;;;;;;24.58;3.55;;;10.70;99.90;;;;;;5036576;28;20033;-75
2023/01/05 09:29:03;;;;;;;30.37;4.87;;;10.70;99.90;;;;;;5058868;28;20048;-76
2023/01/05 09:31:29;;;;;;;31.77;4.05;;;10.70;99.90;;;;;;5057208;28;20387;-76
2023/01/05 09:33:56;;;;;;;29.07;4.67;;;10.70;99.90;;;;;;5040050;28;20021;-78
2023/01/05 09:36:24;;;;;;;24.38;4.22;;;10.80;99.90;;;;;;5036369;28;20423;-76
2023/01/05 09:38:50;;;;;;;22.33;4.30;;;10.80;99.90;;;;;;5057161;28;20029;-76
2023/01/05 09:41:20;;;;;;;28.15;4.53;;;10.80;99.90;;;;;;5054572;28;20036;-76
2023/01/05 09:43:47;;;;;;;46.22;5.00;;;10.80;99.90;;;;;;5057595;28;20025;-76
2023/01/05 09:46:18;;;;;;;31.13;4.40;;;10.80;99.90;;;;;;5048728;28;20365;-75
2023/01/05 09:48:49;;;;;;;29.63;5.90;;;10.80;99.90;;;;;;5025191;28;20039;-75
2023/01/05 09:51:15;;;;;;;36.03;4.15;;;10.70;99.90;;;;;;5047093;28;20021;-77
2023/01/05 09:53:41;;;;;;;30.03;4.53;;;10.80;99.90;;;;;;5044180;28;20033;-80
2023/01/05 09:56:20;;;;;;;37.90;4.70;;;10.80;99.90;;;;;;5031437;28;20033;-76
2023/01/05 09:58:46;;;;;;;23.45;3.97;;;10.80;99.90;;;;;;5042222;28;20033;-76
2023/01/05 10:01:15;;;;;;;34.30;4.53;;;10.80;99.90;;;;;;5045240;28;20025;-75
2023/01/05 10:03:55;;;;;;;29.63;3.65;;;10.90;99.90;;;;;;5042248;28;20230;-76
2023/01/05 10:06:26;;;;;;;19.85;3.95;;;10.90;99.90;;;;;;5046409;28;20112;-75
2023/01/05 10:08:53;;;;;;;24.40;3.25;;;10.90;99.90;;;;;;5049416;28;20324;-76
2023/01/05 10:14:25;;;;;;;27.65;3.80;;;10.90;99.90;;;;;;5025011;28;20043;-75
2023/01/05 10:16:51;;;;;;;32.55;4.05;;;11.00;99.90;;;;;;5048574;28;20330;-76
2023/01/05 10:19:19;;;;;;;21.20;4.40;;;11.00;99.90;;;;;;5057278;28;20033;-79
2023/01/05 10:22:09;;;;;;;25.63;4.25;;;11.00;99.90;;;;;;5052552;28;20060;-75
2023/01/05 10:24:44;;;;;;;39.08;4.38;;;11.00;99.90;;;;;;5036872;28;20112;-77
2023/01/05 10:27:28;;;;;;;31.20;3.47;;;11.00;99.90;;;;;;5051242;28;20025;-76
2023/01/05 10:30:18;;;;;;;26.65;3.20;;;11.00;99.90;;;;;;5030132;28;20041;-81
2023/01/05 10:33:08;;;;;;;27.88;3.63;;;11.00;99.90;;;;;;5031033;28;20025;-75
2023/01/05 10:35:39;;;;;;;19.80;3.28;;;11.00;99.90;;;;;;5039309;28;20513;-75
2023/01/05 10:38:27;;;;;;;34.50;4.60;;;11.10;99.90;;;;;;5039151;28;20115;-80
2023/01/05 10:40:56;;;;;;;27.02;3.90;;;11.10;99.90;;;;;;5062146;28;20336;-76
2023/01/05 10:43:41;;;;;;;24.77;4.13;;;11.10;99.90;;;;;;5035299;28;20021;-77
2023/01/05 10:46:12;;;;;;;30.45;3.65;;;11.10;99.90;;;;;;5038253;28;20025;-81
2023/01/05 10:48:38;;;;;;;23.00;4.32;;;11.10;99.90;;;;;;5049349;28;20021;-74
2023/01/05 10:51:05;;;;;;;25.48;4.38;;;11.10;99.90;;;;;;5035648;28;20106;-77
2023/01/05 10:53:36;;;;;;;32.28;4.90;;;11.10;99.90;;;;;;5055293;28;20074;-75
2023/01/05 10:56:03;;;;;;;21.30;3.72;;;11.20;99.90;;;;;;5053214;28;20032;-76
2023/01/05 10:58:35;;;;;;;18.85;2.83;;;11.20;99.90;;;;;;5053421;28;20029;-76
2023/01/05 11:01:03;;;;;;;25.40;3.47;;;11.30;99.90;;;;;;5055510;28;20029;-75
2023/01/05 11:03:37;;;;;;;10.93;2.65;;;11.30;99.90;;;;;;5038445;28;20320;-76
2023/01/05 11:06:04;;;;;;;27.42;3.75;;;11.30;99.90;;;;;;5047826;28;20545;-80
2023/01/05 11:08:30;;;;;;;;;;;11.30;99.90;;;;;;5038699;28;20063;-75
2023/01/05 11:11:00;;;;;;;29.50;3.40;;;11.30;99.90;;;;;;5049806;28;19909;-76
2023/01/05 11:13:34;;;;;;;25.58;3.38;;;11.30;99.90;;;;;;5035976;28;20327;-76
2023/01/05 11:16:12;;;;;;;28.77;4.65;;;11.40;99.90;;;;;;5034615;28;20323;-76
2023/01/05 11:19:03;;;;;;;28.50;4.28;;;11.30;99.90;;;;;;5048987;28;20036;-77
2023/01/05 11:21:35;;;;;;;24.05;4.07;;;11.40;99.90;;;;;;5061985;28;20319;-76
2023/01/05 11:24:03;;;;;;;34.55;3.55;;;11.40;99.90;;;;;;5037800;28;20481;-78
2023/01/05 11:26:34;;;;;;;21.85;2.67;;;11.40;99.90;;;;;;5056190;28;20041;-76
2023/01/05 11:29:04;;;;;;;20.63;3.88;;;11.40;99.90;;;;;;5059228;28;20073;-76
2023/01/05 11:31:36;;;;;;;16.80;2.95;;;11.40;99.90;;;;;;5039094;28;20112;-77
2023/01/05 11:34:23;;;;;;;26.80;2.88;;;11.40;99.90;;;;;;5057140;28;20016;-82
2023/01/05 11:37:01;;;;;;;20.15;3.38;;;11.40;99.90;;;;;;5050614;28;20104;-77
2023/01/05 11:39:33;;;;;;;16.10;3.53;;;11.50;99.90;;;;;;5037151;28;20043;-76
2023/01/05 11:42:31;;;;;;;22.05;3.80;;;11.50;99.90;;;;;;5038907;28;20029;-75
2023/01/05 11:45:13;;;;;;;30.65;3.55;;;11.50;99.90;;;;;;5032957;28;20047;-73
2023/01/05 11:47:51;;;;;;;34.10;4.68;;;11.60;99.90;;;;;;5053383;28;20074;-78
2023/01/05 11:50:26;;;;;;;27.27;3.60;;;11.60;99.90;;;;;;5037440;28;20060;-77
2023/01/05 11:53:01;;;;;;;27.30;3.33;;;11.70;99.90;;;;;;5048111;28;20430;-77
2023/01/05 11:55:40;;;;;;;36.67;4.40;;;11.80;99.90;;;;;;5046243;28;20025;-76
2023/01/05 11:58:22;;;;;;;32.95;4.28;;;11.90;99.90;;;;;;5029743;28;20028;-76
2023/01/05 12:01:09;;;;;;;30.73;3.80;;;11.90;99.90;;;;;;5033983;28;20052;-77
2023/01/05 12:04:00;;;;;;;25.42;4.00;;;12.00;99.90;;;;;;5048371;28;20112;-75
2023/01/05 12:06:45;;;;;;;31.98;4.55;;;12.10;99.90;;;;;;5051850;28;20032;-75
2023/01/05 12:09:27;;;;;;;24.98;3.33;;;12.20;99.90;;;;;;5034059;28;20029;-77
2023/01/05 12:12:28;;;;;;;25.42;3.78;;;12.40;99.90;;;;;;5046157;28;20332;-76
2023/01/05 12:15:01;;;;;;;24.15;3.88;;;12.60;99.90;;;;;;5049575;28;20444;-77
2023/01/05 12:17:52;;;;;;;29.88;4.18;;;12.80;99.90;;;;;;5046580;28;20032;-75
2023/01/05 12:20:28;;;;;;;22.38;3.95;;;12.70;99.90;;;;;;5051769;28;20040;-75
2023/01/05 12:23:10;;;;;;;26.83;4.82;;;12.70;99.90;;;;;;5047206;28;20397;-76
2023/01/05 12:26:13;;;;;;;33.45;4.15;;;12.70;99.90;;;;;;5053135;28;21965;-76
2023/01/05 12:29:11;;;;;;;25.52;4.72;;;12.70;99.90;;;;;;5051745;28;20383;-76
2023/01/05 12:31:56;;;;;;;27.95;4.05;;;12.70;99.90;;;;;;5049151;28;20416;-77
2023/01/05 12:34:44;;;;;;;20.02;3.83;;;12.80;99.90;;;;;;5051288;28;20033;-78
2023/01/05 12:37:37;;;;;;;22.92;3.72;;;12.80;99.90;;;;;;5032687;28;20436;-76
2023/01/05 12:40:19;;;;;;;14.82;3.05;;;12.80;99.90;;;;;;4965030;28;20048;-76
2023/01/05 12:42:57;;;;;;;18.15;3.05;;;12.70;99.90;;;;;;4952613;28;20035;-76
2023/01/05 12:45:42;;;;;;;22.60;3.30;;;12.70;99.90;;;;;;4953171;28;20156;-76
2023/01/05 12:48:17;;;;;;;25.88;3.50;;;12.70;99.90;;;;;;4949364;28;20669;-73
2023/01/05 12:51:09;;;;;;;24.50;3.17;;;12.70;99.90;;;;;;4960076;28;20324;-77
2023/01/05 12:53:46;;;;;;;23.38;3.10;;;12.70;99.90;;;;;;4934339;29;20147;-76
2023/01/05 12:56:18;;;;;;;17.25;2.88;;;12.70;99.90;;;;;;4954259;28;20461;-77
2023/01/05 12:59:08;;;;;;;24.95;3.70;;;12.80;99.90;;;;;;4954292;29;20331;-77
2023/01/05 13:01:42;;;;;;;19.88;3.22;;;13.00;99.90;;;;;;4955619;28;20050;-75
2023/01/05 13:04:38;;;;;;;21.02;3.53;;;12.90;99.90;;;;;;4940202;28;20035;-77
2023/01/05 13:07:16;;;;;;;30.75;3.72;;;12.70;99.90;;;;;;4955123;28;20038;-78
2023/01/05 13:09:44;;;;;;;20.58;3.47;;;12.40;99.90;;;;;;4954808;28;20058;-78
2023/01/05 13:12:12;;;;;;;28.00;4.07;;;12.20;99.90;;;;;;4938937;29;20035;-76
2023/01/05 13:15:07;;;;;;;30.35;4.22;;;12.10;99.90;;;;;;4957020;28;20351;-79
2023/01/05 13:17:39;;;;;;;31.85;4.22;;;12.00;99.90;;;;;;5029014;28;20036;-78
2023/01/05 13:20:34;;;;;;;25.48;3.35;;;11.90;99.90;;;;;;5036060;28;20070;-77
2023/01/05 13:23:23;;;;;;;19.95;3.05;;;11.80;99.90;;;;;;5020879;28;20037;-76
2023/01/05 13:25:56;;;;;;;27.92;3.38;;;11.90;99.90;;;;;;5050188;28;20039;-76
2023/01/05 13:28:24;;;;;;;33.75;4.07;;;11.80;99.90;;;;;;5047907;28;20060;-76
2023/01/05 13:31:03;;;;;;;25.38;3.50;;;11.80;99.90;;;;;;5034598;28;20052;-77
2023/01/05 13:34:08;;;;;;;36.03;4.90;;;11.80;99.90;;;;;;5035192;28;20070;-77
2023/01/05 13:36:55;;;;;;;29.55;4.25;;;11.80;99.90;;;;;;4963478;28;20026;-77
2023/01/05 13:39:40;;;;;;;27.85;4.25;;;11.70;99.90;;;;;;4979550;28;20038;-78
2023/01/05 13:42:18;;;;;;;26.83;5.15;;;11.70;99.90;;;;;;4977396;28;20045;-79
2023/01/05 13:44:53;;;;;;;28.05;4.28;;;11.70;99.90;;;;;;4954580;28;20424;-77